createdAt,value
2022-11-06T00:02:20.956Z,1.50
2022-11-06T00:04:48.773Z,1.40
2022-11-06T00:07:16.279Z,1.30
2022-11-06T00:09:43.710Z,1.10
2022-11-06T00:12:11.098Z,0.90
2022-11-06T00:14:38.474Z,0.90
2022-11-06T00:17:05.907Z,1.00
2022-11-06T00:19:33.270Z,1.10
2022-11-06T00:22:00.724Z,1.10
2022-11-06T00:24:28.450Z,0.80
2022-11-06T00:26:55.809Z,0.70
2022-11-06T00:29:23.384Z,0.70
2022-11-06T00:31:51.113Z,0.70
2022-11-06T00:34:18.520Z,0.70
2022-11-06T00:36:46.006Z,0.80
2022-11-06T00:39:13.490Z,0.70
2022-11-06T00:41:40.863Z,0.70
2022-11-06T00:44:10.644Z,0.80
2022-11-06T00:46:38.344Z,0.90
2022-11-06T00:49:06.017Z,0.90
2022-11-06T00:51:39.598Z,0.80
2022-11-06T00:54:11.183Z,0.80
2022-11-06T00:56:38.871Z,0.70
2022-11-06T00:59:10.314Z,0.70
2022-11-06T01:01:41.895Z,0.70
2022-11-06T01:04:15.798Z,0.60
2022-11-06T01:06:46.750Z,0.60
2022-11-06T01:09:18.519Z,0.60
2022-11-06T01:14:40.342Z,0.90
2022-11-06T01:17:07.908Z,0.90
2022-11-06T01:19:35.433Z,0.80
2022-11-06T01:22:03.065Z,0.90
2022-11-06T01:24:30.608Z,0.90
2022-11-06T01:27:25.513Z,0.70
2022-11-06T01:29:46.018Z,0.70
2022-11-06T01:32:13.456Z,0.70
2022-11-06T01:34:41.024Z,0.60
2022-11-06T01:37:13.233Z,0.50
2022-11-06T01:39:42.320Z,0.50
2022-11-06T01:42:16.200Z,0.50
2022-11-06T01:44:43.568Z,0.30
2022-11-06T01:47:28.753Z,0.20
2022-11-06T01:50:01.682Z,0.00
2022-11-06T01:52:31.367Z,-0.10
2022-11-06T01:55:08.879Z,0.20
2022-11-06T01:57:36.463Z,0.40
2022-11-06T02:00:06.691Z,0.50
2022-11-06T02:02:34.691Z,0.40
2022-11-06T02:05:02.478Z,0.30
2022-11-06T02:07:30.214Z,0.30
2022-11-06T02:09:57.590Z,0.20
2022-11-06T02:12:52.280Z,0.10
2022-11-06T02:15:39.668Z,-0.10
2022-11-06T02:18:23.851Z,-0.20
2022-11-06T02:21:27.486Z,0.10
2022-11-06T02:24:18.981Z,0.20
2022-11-06T02:27:16.184Z,0.00
2022-11-06T02:30:09.584Z,0.00
2022-11-06T02:32:45.715Z,0.10
2022-11-06T02:35:30.461Z,0.10
2022-11-06T02:38:05.833Z,0.20
2022-11-06T02:40:38.258Z,0.10
2022-11-06T02:43:08.582Z,0.20
2022-11-06T02:46:27.020Z,0.30
2022-11-06T02:49:03.830Z,0.40
2022-11-06T02:51:41.251Z,0.50
2022-11-06T02:54:10.874Z,0.60
2022-11-06T02:56:42.506Z,0.70
2022-11-06T02:59:23.422Z,0.60
2022-11-06T03:01:57.746Z,0.60
2022-11-06T03:04:41.978Z,0.60
2022-11-06T03:07:22.680Z,0.60
2022-11-06T03:09:50.906Z,0.50
2022-11-06T03:12:54.903Z,0.30
2022-11-06T03:15:37.375Z,0.40
2022-11-06T03:18:28.641Z,0.50
2022-11-06T03:21:07.618Z,0.60
2022-11-06T03:23:45.298Z,0.60
2022-11-06T03:26:27.747Z,0.70
2022-11-06T03:29:01.023Z,0.60
2022-11-06T03:31:41.071Z,0.60
2022-11-06T03:34:19.707Z,0.70
2022-11-06T03:36:57.343Z,0.60
2022-11-06T03:39:35.648Z,0.50
2022-11-06T03:42:14.001Z,0.50
2022-11-06T03:44:48.734Z,0.50
2022-11-06T03:47:26.750Z,0.50
2022-11-06T03:50:34.595Z,0.40
2022-11-06T03:53:26.818Z,0.40
2022-11-06T03:56:07.756Z,0.40
2022-11-06T03:58:40.696Z,0.40
2022-11-06T04:01:12.378Z,0.40
2022-11-06T04:03:56.970Z,0.40
2022-11-06T04:06:48.848Z,0.40
2022-11-06T04:09:37.010Z,0.30
2022-11-06T04:12:25.189Z,0.30
2022-11-06T04:14:57.164Z,0.20
2022-11-06T04:17:29.289Z,0.20
2022-11-06T04:20:02.206Z,0.10
2022-11-06T04:22:46.111Z,0.10
2022-11-06T04:25:47.979Z,0.10
2022-11-06T04:28:44.027Z,0.20
2022-11-06T04:31:46.483Z,0.30
2022-11-06T04:34:59.696Z,0.30
2022-11-06T04:38:00.906Z,0.20
2022-11-06T04:41:05.461Z,0.20
2022-11-06T04:43:50.487Z,0.30
2022-11-06T04:46:28.197Z,0.30
2022-11-06T04:48:56.427Z,0.20
2022-11-06T04:51:30.376Z,0.20
2022-11-06T04:53:58.429Z,0.30
2022-11-06T04:56:38.000Z,0.20
2022-11-06T04:59:17.751Z,0.10
2022-11-06T05:01:47.367Z,0.00
2022-11-06T05:04:15.063Z,0.00
2022-11-06T05:06:42.591Z,0.10
2022-11-06T05:09:10.195Z,0.20
2022-11-06T05:11:38.619Z,0.40
2022-11-06T05:14:06.244Z,0.40
2022-11-06T05:16:33.721Z,0.40
2022-11-06T05:19:01.150Z,0.30
2022-11-06T05:21:46.778Z,0.20
2022-11-06T05:24:14.314Z,0.10
2022-11-06T05:26:41.863Z,0.00
2022-11-06T05:29:09.532Z,-0.10
2022-11-06T05:31:36.949Z,-0.20
2022-11-06T05:34:04.522Z,-0.20
2022-11-06T05:36:31.952Z,-0.20
2022-11-06T05:38:59.434Z,-0.20
2022-11-06T05:41:27.254Z,-0.30
2022-11-06T05:43:54.677Z,-0.40
2022-11-06T05:46:47.152Z,-0.40
2022-11-06T05:49:09.947Z,-0.30
2022-11-06T05:51:37.436Z,-0.30
2022-11-06T05:54:04.982Z,-0.20
2022-11-06T05:56:32.428Z,-0.10
2022-11-06T05:58:59.882Z,0.00
2022-11-06T06:01:27.448Z,0.20
2022-11-06T06:03:54.924Z,0.30
2022-11-06T06:06:22.472Z,0.30
2022-11-06T06:08:49.884Z,0.30
2022-11-06T06:11:17.334Z,0.40
2022-11-06T06:13:44.798Z,0.40
2022-11-06T06:16:12.233Z,0.40
2022-11-06T06:18:39.721Z,0.50
2022-11-06T06:21:07.171Z,0.40
2022-11-06T06:23:34.647Z,0.40
2022-11-06T06:26:02.075Z,0.40
2022-11-06T06:28:29.527Z,0.40
2022-11-06T06:31:01.290Z,0.50
2022-11-06T06:33:29.491Z,0.50
2022-11-06T06:35:57.112Z,0.50
2022-11-06T06:38:26.104Z,0.50
2022-11-06T06:40:54.350Z,0.60
2022-11-06T06:43:21.794Z,0.60
2022-11-06T06:45:49.601Z,0.70
2022-11-06T06:48:17.131Z,0.70
2022-11-06T06:50:44.570Z,0.70
2022-11-06T06:53:13.507Z,0.70
2022-11-06T06:55:42.155Z,0.60
2022-11-06T06:58:16.624Z,0.50
2022-11-06T07:00:45.695Z,0.50
2022-11-06T07:03:13.345Z,0.60
2022-11-06T07:05:41.022Z,0.60
2022-11-06T07:08:08.402Z,0.60
2022-11-06T07:10:36.350Z,0.60
2022-11-06T07:13:06.914Z,0.70
2022-11-06T07:15:34.393Z,0.80
2022-11-06T07:18:06.479Z,0.80
2022-11-06T07:20:35.366Z,0.90
2022-11-06T07:23:07.928Z,0.90
2022-11-06T07:25:36.332Z,0.90
2022-11-06T07:28:06.383Z,1.00
2022-11-06T07:30:35.801Z,1.10
2022-11-06T07:33:04.920Z,1.10
2022-11-06T07:35:35.605Z,1.20
2022-11-06T07:38:07.459Z,1.20
2022-11-06T07:40:35.884Z,1.30
2022-11-06T07:43:08.246Z,1.30
2022-11-06T07:45:35.830Z,1.40
2022-11-06T07:48:03.867Z,1.60
2022-11-06T07:50:31.825Z,1.80
2022-11-06T07:53:03.321Z,1.90
2022-11-06T07:55:30.838Z,2.10
2022-11-06T07:57:59.728Z,2.20
2022-11-06T08:00:27.511Z,2.30
2022-11-06T08:02:55.041Z,2.50
2022-11-06T08:05:22.547Z,2.60
2022-11-06T08:07:50.013Z,2.70
2022-11-06T08:10:17.911Z,2.90
2022-11-06T08:12:45.308Z,3.10
2022-11-06T08:15:12.781Z,3.00
2022-11-06T08:17:40.233Z,3.10
2022-11-06T08:20:09.138Z,3.10
2022-11-06T08:22:36.581Z,3.20
2022-11-06T08:25:04.528Z,3.20
2022-11-06T08:27:33.229Z,3.40
2022-11-06T08:30:00.685Z,3.40
2022-11-06T08:32:29.047Z,3.50
2022-11-06T08:34:56.760Z,3.80
2022-11-06T08:37:24.143Z,3.80
2022-11-06T08:39:51.529Z,3.90
2022-11-06T08:42:18.996Z,3.80
2022-11-06T08:44:46.432Z,4.00
2022-11-06T08:47:13.811Z,3.90
2022-11-06T08:49:43.651Z,4.10
2022-11-06T08:52:11.087Z,4.20
2022-11-06T08:54:38.537Z,4.30
2022-11-06T08:57:06.007Z,4.40
2022-11-06T08:59:33.481Z,4.60
2022-11-06T09:02:01.522Z,5.00
2022-11-06T09:04:29.060Z,5.20
2022-11-06T09:06:58.540Z,5.50
2022-11-06T09:09:32.158Z,5.40
2022-11-06T09:12:01.544Z,5.20
2022-11-06T09:14:29.062Z,5.20
2022-11-06T09:16:56.500Z,5.40
2022-11-06T09:19:24.547Z,5.60
2022-11-06T09:21:54.899Z,5.90
2022-11-06T09:24:43.326Z,6.00
2022-11-06T09:27:10.115Z,6.40
2022-11-06T09:29:40.969Z,6.70
2022-11-06T09:32:08.405Z,6.80
2022-11-06T09:34:35.870Z,7.00
2022-11-06T09:37:03.686Z,7.10
2022-11-06T09:39:31.105Z,7.20
2022-11-06T09:42:21.615Z,7.30
2022-11-06T09:45:22.941Z,7.30
2022-11-06T09:47:59.247Z,7.50
2022-11-06T09:50:34.558Z,7.80
2022-11-06T09:53:29.118Z,8.10
2022-11-06T09:55:58.584Z,8.30
2022-11-06T09:58:34.516Z,8.50
2022-11-06T10:01:19.551Z,8.60
2022-11-06T10:04:02.941Z,8.10
2022-11-06T10:06:30.709Z,7.60
2022-11-06T10:09:02.772Z,7.40
2022-11-06T10:11:55.506Z,7.50
2022-11-06T10:15:08.897Z,7.90
2022-11-06T10:18:12.790Z,8.40
2022-11-06T10:20:57.780Z,9.10
2022-11-06T10:24:24.194Z,9.70
2022-11-06T10:26:58.543Z,10.10
2022-11-06T10:30:03.939Z,10.50
2022-11-06T10:33:10.213Z,10.70
2022-11-06T10:35:44.403Z,10.90
2022-11-06T10:38:18.045Z,11.20
2022-11-06T10:40:53.881Z,11.40
2022-11-06T10:43:53.858Z,11.60
2022-11-06T10:46:35.604Z,11.70
2022-11-06T10:49:34.964Z,11.70
2022-11-06T10:52:21.067Z,11.90
2022-11-06T10:55:09.527Z,11.90
2022-11-06T10:57:58.153Z,12.10
2022-11-06T11:00:26.994Z,12.20
2022-11-06T11:02:59.271Z,12.30
2022-11-06T11:05:37.680Z,12.30
2022-11-06T11:08:05.491Z,12.50
2022-11-06T11:10:37.447Z,12.50
2022-11-06T11:13:08.692Z,12.40
2022-11-06T11:15:46.869Z,12.50
2022-11-06T11:18:20.518Z,12.60
2022-11-06T11:21:05.470Z,12.60
2022-11-06T11:23:33.297Z,12.60
2022-11-06T11:26:27.799Z,12.70
2022-11-06T11:29:01.682Z,13.00
2022-11-06T11:31:34.840Z,13.10
2022-11-06T11:34:16.592Z,13.10
2022-11-06T11:36:59.406Z,13.20
2022-11-06T11:39:34.243Z,13.00
2022-11-06T11:42:33.092Z,13.00
2022-11-06T11:45:26.937Z,13.10
2022-11-06T11:48:14.312Z,13.30
2022-11-06T11:50:42.092Z,13.30
2022-11-06T11:53:21.085Z,13.40
2022-11-06T11:55:51.014Z,13.50
2022-11-06T11:58:33.236Z,13.40
2022-11-06T12:01:04.205Z,13.50
2022-11-06T12:03:42.105Z,13.70
2022-11-06T12:06:16.916Z,13.70
2022-11-06T12:08:53.294Z,13.60
2022-11-06T12:11:26.735Z,13.80
2022-11-06T12:14:22.072Z,14.10
2022-11-06T12:16:53.772Z,14.40
2022-11-06T12:19:23.813Z,15.00
2022-11-06T12:22:05.767Z,15.50
2022-11-06T12:24:46.602Z,15.60
2022-11-06T12:27:28.188Z,15.30
2022-11-06T12:30:09.782Z,15.50
2022-11-06T12:33:06.331Z,15.60
2022-11-06T12:35:42.710Z,16.00
2022-11-06T12:38:31.135Z,16.30
2022-11-06T12:41:22.618Z,16.50
2022-11-06T12:43:51.760Z,16.90
2022-11-06T12:46:59.515Z,16.70
2022-11-06T12:49:52.063Z,16.60
2022-11-06T12:53:08.106Z,16.90
2022-11-06T12:55:52.011Z,17.10
2022-11-06T12:58:44.429Z,16.60
2022-11-06T13:01:25.628Z,16.60
2022-11-06T13:04:17.998Z,17.00
2022-11-06T13:07:10.029Z,17.20
2022-11-06T13:10:07.612Z,17.30
2022-11-06T13:13:15.772Z,17.10
2022-11-06T13:16:10.184Z,17.20
2022-11-06T13:18:43.224Z,17.30
2022-11-06T13:21:23.846Z,17.40
2022-11-06T13:23:54.981Z,17.20
2022-11-06T13:26:48.567Z,16.90
2022-11-06T13:29:18.407Z,16.80
2022-11-06T13:32:04.609Z,16.80
2022-11-06T13:34:38.649Z,16.70
2022-11-06T13:37:21.719Z,16.60
2022-11-06T13:39:59.745Z,16.30
2022-11-06T13:42:33.389Z,16.30
2022-11-06T13:45:01.829Z,16.80
2022-11-06T13:47:54.188Z,16.80
2022-11-06T13:50:44.362Z,16.70
2022-11-06T13:53:14.722Z,16.80
2022-11-06T13:56:18.418Z,16.70
2022-11-06T13:59:21.099Z,16.20
2022-11-06T14:01:59.210Z,15.80
2022-11-06T14:05:05.718Z,15.80
2022-11-06T14:07:34.603Z,16.10
2022-11-06T14:10:02.387Z,16.40
2022-11-06T14:12:29.947Z,16.20
2022-11-06T14:15:23.730Z,16.20
2022-11-06T14:18:01.680Z,15.90
2022-11-06T14:20:32.779Z,15.80
2022-11-06T14:23:31.023Z,15.80
2022-11-06T14:26:02.416Z,15.80
2022-11-06T14:28:42.593Z,15.60
2022-11-06T14:32:06.710Z,15.70
2022-11-06T14:34:35.454Z,15.70
2022-11-06T14:37:29.871Z,15.50
2022-11-06T14:39:58.385Z,15.20
2022-11-06T14:42:46.287Z,14.80
2022-11-06T14:45:21.064Z,14.50
2022-11-06T14:47:54.472Z,14.10
2022-11-06T14:50:29.085Z,13.30
2022-11-06T14:53:02.675Z,12.40
2022-11-06T14:55:45.366Z,11.60
2022-11-06T14:58:27.191Z,11.00
2022-11-06T15:01:11.227Z,10.70
2022-11-06T15:03:44.529Z,10.20
2022-11-06T15:06:17.706Z,9.80
2022-11-06T15:08:50.868Z,9.60
2022-11-06T15:11:30.161Z,9.30
2022-11-06T15:14:04.634Z,9.20
2022-11-06T15:16:43.649Z,9.00
2022-11-06T15:19:43.074Z,8.80
2022-11-06T15:22:42.104Z,8.60
2022-11-06T15:25:27.594Z,8.40
2022-11-06T15:28:16.184Z,8.20
2022-11-06T15:31:07.743Z,8.00
2022-11-06T15:33:54.457Z,7.80
2022-11-06T15:36:23.797Z,7.50
2022-11-06T15:38:51.340Z,7.30
2022-11-06T15:41:23.827Z,7.00
2022-11-06T15:43:55.214Z,6.80
2022-11-06T15:46:28.716Z,6.60
2022-11-06T15:49:17.956Z,6.50
2022-11-06T15:52:02.841Z,6.50
2022-11-06T15:54:38.422Z,6.40
2022-11-06T15:57:28.281Z,6.50
2022-11-06T16:00:21.115Z,6.50
2022-11-06T16:02:51.656Z,6.50
2022-11-06T16:05:21.971Z,6.50
2022-11-06T16:07:50.817Z,6.50
2022-11-06T16:10:21.176Z,6.40
2022-11-06T16:12:50.283Z,6.40
2022-11-06T16:15:45.476Z,6.40
2022-11-06T16:18:32.882Z,6.30
2022-11-06T16:21:21.914Z,6.20
2022-11-06T16:23:57.317Z,6.10
2022-11-06T16:26:32.281Z,6.00
2022-11-06T16:29:01.598Z,6.00
2022-11-06T16:31:31.473Z,6.10
2022-11-06T16:34:33.268Z,6.10
2022-11-06T16:37:07.574Z,6.10
2022-11-06T16:39:56.182Z,6.10
2022-11-06T16:42:36.119Z,6.00
2022-11-06T16:45:21.433Z,6.10
2022-11-06T16:48:09.123Z,6.00
2022-11-06T16:50:51.703Z,5.80
2022-11-06T16:53:26.205Z,5.80
2022-11-06T16:56:06.183Z,5.70
2022-11-06T16:58:49.317Z,5.60
2022-11-06T17:01:20.874Z,5.60
2022-11-06T17:04:00.245Z,5.40
2022-11-06T17:06:34.444Z,5.40
2022-11-06T17:09:24.242Z,5.40
2022-11-06T17:11:54.003Z,5.30
2022-11-06T17:14:23.006Z,5.30
2022-11-06T17:17:00.314Z,5.20
2022-11-06T17:19:29.299Z,5.20
2022-11-06T17:21:57.552Z,5.10
2022-11-06T17:24:40.589Z,5.10
2022-11-06T17:27:08.075Z,5.00
2022-11-06T17:29:36.708Z,4.90
2022-11-06T17:32:04.641Z,4.90
2022-11-06T17:34:32.109Z,4.80
2022-11-06T17:36:59.578Z,4.70
2022-11-06T17:39:27.111Z,4.60
2022-11-06T17:41:54.701Z,4.60
2022-11-06T17:44:22.615Z,4.60
2022-11-06T17:46:50.309Z,4.50
2022-11-06T17:49:18.781Z,4.60
2022-11-06T17:51:50.892Z,4.50
2022-11-06T17:54:27.406Z,4.40
2022-11-06T17:56:57.023Z,4.40
2022-11-06T17:59:24.982Z,4.30
2022-11-06T18:01:54.212Z,4.30
2022-11-06T18:04:24.662Z,4.30
2022-11-06T18:06:53.227Z,4.20
2022-11-06T18:09:22.462Z,4.20
2022-11-06T18:11:51.375Z,4.10
2022-11-06T18:14:19.459Z,4.10
2022-11-06T18:16:47.113Z,4.10
2022-11-06T18:19:18.545Z,4.10
2022-11-06T18:21:47.111Z,4.00
2022-11-06T18:24:14.814Z,4.00
2022-11-06T18:26:42.565Z,4.00
2022-11-06T18:29:12.115Z,3.90
2022-11-06T18:31:39.998Z,3.80
2022-11-06T18:34:13.972Z,3.80
2022-11-06T18:36:44.293Z,3.80
2022-11-06T18:39:12.229Z,3.80
2022-11-06T18:41:39.826Z,3.80
2022-11-06T18:44:07.266Z,3.70
2022-11-06T18:46:35.001Z,3.70
2022-11-06T18:49:02.497Z,3.70
2022-11-06T18:51:36.062Z,3.60
2022-11-06T18:54:09.181Z,3.50
2022-11-06T18:56:37.462Z,3.40
2022-11-06T18:59:14.627Z,3.40
2022-11-06T19:01:42.157Z,3.40
2022-11-06T19:04:10.975Z,3.50
2022-11-06T19:06:40.344Z,3.40
2022-11-06T19:09:09.669Z,3.40
2022-11-06T19:11:37.342Z,3.30
2022-11-06T19:14:04.803Z,3.30
2022-11-06T19:16:32.300Z,3.20
2022-11-06T19:19:05.845Z,3.30
2022-11-06T19:21:34.694Z,3.40
2022-11-06T19:24:04.542Z,3.40
2022-11-06T19:26:37.499Z,3.40
2022-11-06T19:29:08.345Z,3.30
2022-11-06T19:31:37.830Z,3.30
2022-11-06T19:34:07.593Z,3.20
2022-11-06T19:36:36.131Z,3.30
2022-11-06T19:39:04.771Z,3.20
2022-11-06T19:41:32.158Z,3.30
2022-11-06T19:43:59.975Z,3.30
2022-11-06T19:46:33.844Z,3.30
2022-11-06T19:49:04.701Z,3.20
2022-11-06T19:51:33.661Z,3.10
2022-11-06T19:54:06.408Z,3.10
2022-11-06T19:56:34.147Z,3.10
2022-11-06T19:59:02.396Z,3.10
2022-11-06T20:01:29.999Z,3.10
2022-11-06T20:03:57.514Z,3.10
2022-11-06T20:06:24.907Z,3.10
2022-11-06T20:08:52.312Z,3.10
2022-11-06T20:11:19.834Z,3.00
2022-11-06T20:13:47.680Z,2.90
2022-11-06T20:16:21.380Z,2.90
2022-11-06T20:18:58.186Z,2.90
2022-11-06T20:21:28.275Z,3.10
2022-11-06T20:23:58.630Z,3.00
2022-11-06T20:26:26.141Z,3.00
2022-11-06T20:28:53.569Z,3.00
2022-11-06T20:31:21.938Z,2.90
2022-11-06T20:33:50.404Z,2.90
2022-11-06T20:36:28.327Z,2.90
2022-11-06T20:39:00.152Z,3.30
2022-11-06T20:41:29.119Z,3.40
2022-11-06T20:43:58.363Z,3.40
2022-11-06T20:46:26.249Z,3.40
2022-11-06T20:48:53.757Z,3.50
2022-11-06T20:51:25.519Z,3.40
2022-11-06T20:53:53.726Z,3.40
2022-11-06T20:56:25.503Z,3.50
2022-11-06T20:58:57.277Z,3.50
2022-11-06T21:01:30.259Z,3.50
2022-11-06T21:03:58.517Z,3.50
2022-11-06T21:06:28.006Z,3.40
2022-11-06T21:08:56.325Z,3.40
2022-11-06T21:11:27.357Z,3.40
2022-11-06T21:13:56.393Z,3.40
2022-11-06T21:16:31.647Z,3.40
2022-11-06T21:19:00.851Z,3.40
2022-11-06T21:21:33.321Z,3.30
2022-11-06T21:24:02.471Z,3.30
2022-11-06T21:26:33.551Z,3.20
2022-11-06T21:29:04.516Z,3.20
2022-11-06T21:31:32.696Z,3.20
2022-11-06T21:34:03.072Z,3.20
2022-11-06T21:36:34.920Z,3.30
2022-11-06T21:39:13.390Z,3.20
2022-11-06T21:41:40.859Z,3.20
2022-11-06T21:44:11.926Z,3.10
2022-11-06T21:46:45.008Z,3.00
2022-11-06T21:49:13.765Z,2.90
2022-11-06T21:51:41.691Z,2.80
2022-11-06T21:54:42.545Z,2.70
2022-11-06T21:57:09.944Z,2.80
2022-11-06T21:59:41.439Z,2.80
2022-11-06T22:02:10.115Z,2.80
2022-11-06T22:04:37.721Z,2.80
2022-11-06T22:07:05.139Z,2.80
2022-11-06T22:09:32.571Z,2.80
2022-11-06T22:11:59.992Z,2.90
2022-11-06T22:14:27.633Z,2.80
2022-11-06T22:16:55.384Z,2.70
2022-11-06T22:19:22.825Z,2.70
2022-11-06T22:21:50.203Z,2.60
2022-11-06T22:24:17.614Z,2.50
2022-11-06T22:26:45.020Z,2.40
2022-11-06T22:29:14.327Z,2.30
2022-11-06T22:31:42.088Z,2.20
2022-11-06T22:34:12.357Z,2.20
2022-11-06T22:36:40.831Z,2.20
2022-11-06T22:39:09.597Z,2.20
2022-11-06T22:41:37.981Z,2.20
2022-11-06T22:44:06.900Z,2.20
2022-11-06T22:46:34.963Z,2.30
2022-11-06T22:49:04.349Z,2.20
2022-11-06T22:51:33.750Z,2.20
2022-11-06T22:54:02.417Z,2.20
2022-11-06T22:56:31.294Z,2.30
2022-11-06T22:59:05.115Z,2.40
2022-11-06T23:01:40.193Z,2.50
2022-11-06T23:04:15.360Z,2.50
2022-11-06T23:06:45.471Z,2.60
2022-11-06T23:09:13.932Z,2.60
2022-11-06T23:11:41.467Z,2.60
2022-11-06T23:14:09.640Z,2.50
2022-11-06T23:16:56.177Z,2.60
2022-11-06T23:19:24.796Z,2.70
2022-11-06T23:22:12.347Z,2.70
2022-11-06T23:24:40.004Z,2.70
2022-11-06T23:27:07.497Z,2.70
2022-11-06T23:29:34.894Z,2.60
2022-11-06T23:32:02.263Z,2.60
2022-11-06T23:34:29.690Z,2.50
2022-11-06T23:36:57.153Z,2.60
2022-11-06T23:39:24.580Z,2.60
2022-11-06T23:41:52.020Z,2.70
2022-11-06T23:44:38.081Z,2.70
2022-11-06T23:47:05.541Z,2.80
2022-11-06T23:49:32.933Z,2.80
2022-11-06T23:52:00.437Z,2.80
2022-11-06T23:54:28.059Z,2.70
2022-11-06T23:56:55.593Z,2.80
2022-11-06T23:59:23.310Z,2.80
